Boothbay Harbor, Maine
Current Conditions -  °F | °C
As of 3:45 PM on Monday 22 Dec 2014 (Local Time) from KIWI Reporting Station
Overcast Overcast  
Wind Chill: 34°   Ceiling: 1400
Heat Index: 38°   Visibility: 10mi
Dew Point: 33°   Wind: 5mph
Humidity: 83%   Direction: NA
Pressure: 30.4"   Gusts: NA
Location:  43.85°N, 69.63°W
Report Text: KIWI 222045Z AUTO VRB04KT 10SM BKN014 OVC055 03/01 A3040 RMK AO2 T00330006
Loading
Personal Weather Stations






























Interactive Weather Map New forecast layout! Learn more

10-Day Weather Forecast

Advertisements
Track Severe Weather on mobile